Terminal Aerodrome Forecast
Issued by NWS

Home | Current Version | Previous Version | Graphics & Text | Print | Product List | Glossary On
Versions: 1 2 3 4 5 6 7 8 9 10 11 12 13 14 15 16 17 18 19 20 21 22 23
429
FTUS43 KFGF 150833 AAA
TAFBJI
TAF AMD
KBJI 150833Z 1509/1606 VRB03KT P6SM FEW200
      TEMPO 1509/1512 1/2SM FG SCT005
     FM151300 00000KT P6SM FEW200
     FM151700 14006KT P6SM SCT200
     FM151800 14007KT P6SM BKN200=

USA.gov is the U.S. government's official web portal to all federal, state and local government web resources and services.